sensor_id;sensor_type;location;lat;lon;timestamp;pressure;altitude;pressure_sealevel;temperature
64394;BMP280;50712;49.506;10.400;2023-02-28T00:00:04;98897.75;;;0.73
64394;BMP280;50712;49.506;10.400;2023-02-28T00:00:40;98901.19;;;0.74
64394;BMP280;50712;49.506;10.400;2023-02-28T00:01:12;98899.28;;;0.74
64394;BMP280;50712;49.506;10.400;2023-02-28T00:01:43;98894.69;;;0.75
64394;BMP280;50712;49.506;10.400;2023-02-28T00:02:13;98888.56;;;0.74
64394;BMP280;50712;49.506;10.400;2023-02-28T00:02:44;98897.38;;;0.75
64394;BMP280;50712;49.506;10.400;2023-02-28T00:03:15;98892.00;;;0.75
64394;BMP280;50712;49.506;10.400;2023-02-28T00:03:45;98894.69;;;0.75
64394;BMP280;50712;49.506;10.400;2023-02-28T00:04:16;98898.94;;;0.76
64394;BMP280;50712;49.506;10.400;2023-02-28T00:04:46;98895.47;;;0.75
64394;BMP280;50712;49.506;10.400;2023-02-28T00:05:31;98901.97;;;0.74
64394;BMP280;50712;49.506;10.400;2023-02-28T00:06:03;98892.38;;;0.73
64394;BMP280;50712;49.506;10.400;2023-02-28T00:06:34;98897.75;;;0.73
64394;BMP280;50712;49.506;10.400;2023-02-28T00:07:05;98893.13;;;0.74
64394;BMP280;50712;49.506;10.400;2023-02-28T00:07:35;98895.06;;;0.73
64394;BMP280;50712;49.506;10.400;2023-02-28T00:08:06;98902.75;;;0.75
64394;BMP280;50712;49.506;10.400;2023-02-28T00:08:37;98898.50;;;0.74
64394;BMP280;50712;49.506;10.400;2023-02-28T00:09:08;98897.38;;;0.75
64394;BMP280;50712;49.506;10.400;2023-02-28T00:09:38;98892.38;;;0.73
64394;BMP280;50712;49.506;10.400;2023-02-28T00:10:09;98899.28;;;0.74
64394;BMP280;50712;49.506;10.400;2023-02-28T00:10:44;98899.28;;;0.74
64394;BMP280;50712;49.506;10.400;2023-02-28T00:11:14;98892.00;;;0.75
64394;BMP280;50712;49.506;10.400;2023-02-28T00:11:46;98892.78;;;0.75
64394;BMP280;50712;49.506;10.400;2023-02-28T00:12:16;98899.72;;;0.76
64394;BMP280;50712;49.506;10.400;2023-02-28T00:12:47;98899.72;;;0.76
64394;BMP280;50712;49.506;10.400;2023-02-28T00:13:18;98892.44;;;0.77
64394;BMP280;50712;49.506;10.400;2023-02-28T00:13:48;98902.81;;;0.78
64394;BMP280;50712;49.506;10.400;2023-02-28T00:14:18;98895.56;;;0.79
64394;BMP280;50712;49.506;10.400;2023-02-28T00:14:49;98898.25;;;0.79
64394;BMP280;50712;49.506;10.400;2023-02-28T00:15:19;98891.75;;;0.80
64394;BMP280;50712;49.506;10.400;2023-02-28T00:16:01;98890.97;;;0.79
64394;BMP280;50712;49.506;10.400;2023-02-28T00:16:36;98889.81;;;0.80
64394;BMP280;50712;49.506;10.400;2023-02-28T00:17:06;98887.94;;;0.81
64394;BMP280;50712;49.506;10.400;2023-02-28T00:17:36;98885.25;;;0.81
64394;BMP280;50712;49.506;10.400;2023-02-28T00:18:07;98890.59;;;0.81
64394;BMP280;50712;49.506;10.400;2023-02-28T00:18:37;98884.91;;;0.82
64394;BMP280;50712;49.506;10.400;2023-02-28T00:19:08;98894.47;;;0.83
64394;BMP280;50712;49.506;10.400;2023-02-28T00:19:39;98897.16;;;0.83
64394;BMP280;50712;49.506;10.400;2023-02-28T00:20:09;98895.25;;;0.84
64394;BMP280;50712;49.506;10.400;2023-02-28T00:20:41;98892.59;;;0.84
64394;BMP280;50712;49.506;10.400;2023-02-28T00:21:12;98896.41;;;0.83
64394;BMP280;50712;49.506;10.400;2023-02-28T00:21:42;98897.16;;;0.83
64394;BMP280;50712;49.506;10.400;2023-02-28T00:22:12;98897.16;;;0.83
64394;BMP280;50712;49.506;10.400;2023-02-28T00:22:44;98899.09;;;0.83
64394;BMP280;50712;49.506;10.400;2023-02-28T00:23:16;98902.91;;;0.82
64394;BMP280;50712;49.506;10.400;2023-02-28T00:23:47;98898.66;;;0.81
64394;BMP280;50712;49.506;10.400;2023-02-28T00:24:17;98888.28;;;0.79
64394;BMP280;50712;49.506;10.400;2023-02-28T00:24:48;98892.88;;;0.79
64394;BMP280;50712;49.506;10.400;2023-02-28T00:25:19;98896.69;;;0.78
64394;BMP280;50712;49.506;10.400;2023-02-28T00:25:51;98896.69;;;0.78
64394;BMP280;50712;49.506;10.400;2023-02-28T00:26:22;98895.88;;;0.77
64394;BMP280;50712;49.506;10.400;2023-02-28T00:26:53;98900.47;;;0.77
64394;BMP280;50712;49.506;10.400;2023-02-28T00:27:23;98898.94;;;0.76
64394;BMP280;50712;49.506;10.400;2023-02-28T00:27:53;98893.91;;;0.74
64394;BMP280;50712;49.506;10.400;2023-02-28T00:28:24;98903.84;;;0.74
64394;BMP280;50712;49.506;10.400;2023-02-28T00:28:54;98892.72;;;0.72
64394;BMP280;50712;49.506;10.400;2023-02-28T00:29:26;98896.19;;;0.72
64394;BMP280;50712;49.506;10.400;2023-02-28T00:29:56;98894.63;;;0.71
64394;BMP280;50712;49.506;10.400;2023-02-28T00:30:27;98890.03;;;0.72
64394;BMP280;50712;49.506;10.400;2023-02-28T00:30:57;98901.88;;;0.71
64394;BMP280;50712;49.506;10.400;2023-02-28T00:31:27;98899.97;;;0.71
64394;BMP280;50712;49.506;10.400;2023-02-28T00:31:58;98899.19;;;0.71
64394;BMP280;50712;49.506;10.400;2023-02-28T00:32:28;98896.09;;;0.69
64394;BMP280;50712;49.506;10.400;2023-02-28T00:32:59;98896.09;;;0.69
64394;BMP280;50712;49.506;10.400;2023-02-28T00:33:30;98893.00;;;0.67
64394;BMP280;50712;49.506;10.400;2023-02-28T00:34:00;98884.19;;;0.66
64394;BMP280;50712;49.506;10.400;2023-02-28T00:34:30;98894.91;;;0.66
64394;BMP280;50712;49.506;10.400;2023-02-28T00:35:01;98896.03;;;0.65
64394;BMP280;50712;49.506;10.400;2023-02-28T00:35:32;98900.97;;;0.63
64394;BMP280;50712;49.506;10.400;2023-02-28T00:36:03;98898.28;;;0.63
64394;BMP280;50712;49.506;10.400;2023-02-28T00:36:39;98891.34;;;0.62
64394;BMP280;50712;49.506;10.400;2023-02-28T00:37:13;98891.72;;;0.61
64394;BMP280;50712;49.506;10.400;2023-02-28T00:37:43;98889.78;;;0.61
64394;BMP280;50712;49.506;10.400;2023-02-28T00:38:14;98894.75;;;0.59
64394;BMP280;50712;49.506;10.400;2023-02-28T00:38:45;98891.28;;;0.59
64394;BMP280;50712;49.506;10.400;2023-02-28T00:39:15;98901.22;;;0.58
64394;BMP280;50712;49.506;10.400;2023-02-28T00:39:46;98902.00;;;0.59
64394;BMP280;50712;49.506;10.400;2023-02-28T00:40:17;98897.00;;;0.57
64394;BMP280;50712;49.506;10.400;2023-02-28T00:40:47;98891.66;;;0.57
64394;BMP280;50712;49.506;10.400;2023-02-28T00:41:17;98903.50;;;0.56
64394;BMP280;50712;49.506;10.400;2023-02-28T00:41:48;98898.47;;;0.54
64394;BMP280;50712;49.506;10.400;2023-02-28T00:42:18;98897.34;;;0.55
64394;BMP280;50712;49.506;10.400;2023-02-28T00:42:51;98902.72;;;0.55
64394;BMP280;50712;49.506;10.400;2023-02-28T00:43:21;98894.66;;;0.55
64394;BMP280;50712;49.506;10.400;2023-02-28T00:43:52;98898.13;;;0.56
64394;BMP280;50712;49.506;10.400;2023-02-28T00:44:22;98899.25;;;0.55
64394;BMP280;50712;49.506;10.400;2023-02-28T00:44:52;98894.66;;;0.55
64394;BMP280;50712;49.506;10.400;2023-02-28T00:45:24;98893.09;;;0.54
64394;BMP280;50712;49.506;10.400;2023-02-28T00:45:54;98895.03;;;0.54
64394;BMP280;50712;49.506;10.400;2023-02-28T00:46:24;98891.56;;;0.53
64394;BMP280;50712;49.506;10.400;2023-02-28T00:46:55;98898.81;;;0.53
64394;BMP280;50712;49.506;10.400;2023-02-28T00:47:28;98902.28;;;0.53
64394;BMP280;50712;49.506;10.400;2023-02-28T00:47:58;98895.34;;;0.52
64394;BMP280;50712;49.506;10.400;2023-02-28T00:48:29;98898.81;;;0.53
64394;BMP280;50712;49.506;10.400;2023-02-28T00:48:59;98894.25;;;0.53
64394;BMP280;50712;49.506;10.400;2023-02-28T00:49:30;98893.47;;;0.53
64394;BMP280;50712;49.506;10.400;2023-02-28T00:50:00;98896.13;;;0.53
64394;BMP280;50712;49.506;10.400;2023-02-28T00:50:32;98899.59;;;0.53
64394;BMP280;50712;49.506;10.400;2023-02-28T00:51:02;98896.13;;;0.53
64394;BMP280;50712;49.506;10.400;2023-02-28T00:51:32;98901.13;;;0.54
64394;BMP280;50712;49.506;10.400;2023-02-28T00:52:03;98892.34;;;0.54
64394;BMP280;50712;49.506;10.400;2023-02-28T00:52:33;98902.28;;;0.53
64394;BMP280;50712;49.506;10.400;2023-02-28T00:53:04;98896.94;;;0.53
64394;BMP280;50712;49.506;10.400;2023-02-28T00:53:34;98884.63;;;0.52
64394;BMP280;50712;49.506;10.400;2023-02-28T00:54:04;98896.94;;;0.53
64394;BMP280;50712;49.506;10.400;2023-02-28T00:54:35;98893.47;;;0.53
64394;BMP280;50712;49.506;10.400;2023-02-28T00:55:05;98900.72;;;0.52
64394;BMP280;50712;49.506;10.400;2023-02-28T00:55:37;98887.69;;;0.51
64394;BMP280;50712;49.506;10.400;2023-02-28T00:56:08;98898.81;;;0.53
64394;BMP280;50712;49.506;10.400;2023-02-28T00:56:38;98898.03;;;0.52
64394;BMP280;50712;49.506;10.400;2023-02-28T00:57:09;98894.56;;;0.52
64394;BMP280;50712;49.506;10.400;2023-02-28T00:57:39;98891.91;;;0.52
64394;BMP280;50712;49.506;10.400;2023-02-28T00:58:09;98890.38;;;0.51
64394;BMP280;50712;49.506;10.400;2023-02-28T00:58:40;98898.81;;;0.53
64394;BMP280;50712;49.506;10.400;2023-02-28T00:59:10;98891.13;;;0.51
64394;BMP280;50712;49.506;10.400;2023-02-28T00:59:42;98899.16;;;0.51
64394;BMP280;50712;49.506;10.400;2023-02-28T01:00:12;98897.63;;;0.50
64394;BMP280;50712;49.506;10.400;2023-02-28T01:00:43;98887.69;;;0.51
64394;BMP280;50712;49.506;10.400;2023-02-28T01:01:18;98888.81;;;0.50
64394;BMP280;50712;49.506;10.400;2023-02-28T01:01:49;98887.69;;;0.51
64394;BMP280;50712;49.506;10.400;2023-02-28T01:02:20;98889.59;;;0.50
64394;BMP280;50712;49.506;10.400;2023-02-28T01:02:51;98887.69;;;0.51
64394;BMP280;50712;49.506;10.400;2023-02-28T01:03:21;98885.00;;;0.51
64394;BMP280;50712;49.506;10.400;2023-02-28T01:03:53;98887.69;;;0.51
64394;BMP280;50712;49.506;10.400;2023-02-28T01:04:24;98882.31;;;0.51
64394;BMP280;50712;49.506;10.400;2023-02-28T01:04:55;98883.84;;;0.52
64394;BMP280;50712;49.506;10.400;2023-02-28T01:05:26;98887.31;;;0.52
64394;BMP280;50712;49.506;10.400;2023-02-28T01:05:57;98880.06;;;0.53
64394;BMP280;50712;49.506;10.400;2023-02-28T01:06:27;98878.16;;;0.53
64394;BMP280;50712;49.506;10.400;2023-02-28T01:06:58;98882.75;;;0.53
64394;BMP280;50712;49.506;10.400;2023-02-28T01:07:28;98880.84;;;0.53
64394;BMP280;50712;49.506;10.400;2023-02-28T01:07:59;98879.69;;;0.54
64394;BMP280;50712;49.506;10.400;2023-02-28T01:08:29;98874.69;;;0.53
64394;BMP280;50712;49.506;10.400;2023-02-28T01:08:59;98877.38;;;0.53
64394;BMP280;50712;49.506;10.400;2023-02-28T01:09:30;98875.03;;;0.51
64394;BMP280;50712;49.506;10.400;2023-02-28T01:10:02;98871.22;;;0.52
64394;BMP280;50712;49.506;10.400;2023-02-28T01:10:32;98877.72;;;0.51
64394;BMP280;50712;49.506;10.400;2023-02-28T01:11:07;98875.03;;;0.51
64394;BMP280;50712;49.506;10.400;2023-02-28T01:11:39;98876.97;;;0.51
64394;BMP280;50712;49.506;10.400;2023-02-28T01:12:11;98880.38;;;0.51
64394;BMP280;50712;49.506;10.400;2023-02-28T01:12:41;98874.28;;;0.51
64394;BMP280;50712;49.506;10.400;2023-02-28T01:13:12;98876.97;;;0.51
64394;BMP280;50712;49.506;10.400;2023-02-28T01:13:42;98878.50;;;0.52
64394;BMP280;50712;49.506;10.400;2023-02-28T01:14:16;98876.97;;;0.51
64394;BMP280;50712;49.506;10.400;2023-02-28T01:14:49;98879.63;;;0.51
64394;BMP280;50712;49.506;10.400;2023-02-28T01:15:19;98872.34;;;0.51
64394;BMP280;50712;49.506;10.400;2023-02-28T01:15:50;98873.13;;;0.52
64394;BMP280;50712;49.506;10.400;2023-02-28T01:16:23;98875.03;;;0.51
64394;BMP280;50712;49.506;10.400;2023-02-28T01:16:54;98877.72;;;0.51
64394;BMP280;50712;49.506;10.400;2023-02-28T01:17:24;98877.72;;;0.51
64394;BMP280;50712;49.506;10.400;2023-02-28T01:17:56;98877.72;;;0.51
64394;BMP280;50712;49.506;10.400;2023-02-28T01:18:26;98876.97;;;0.51
64394;BMP280;50712;49.506;10.400;2023-02-28T01:18:57;98881.53;;;0.50
64394;BMP280;50712;49.506;10.400;2023-02-28T01:19:27;98885.00;;;0.51
64394;BMP280;50712;49.506;10.400;2023-02-28T01:19:58;98881.88;;;0.49
64394;BMP280;50712;49.506;10.400;2023-02-28T01:20:29;98882.66;;;0.49
64394;BMP280;50712;49.506;10.400;2023-02-28T01:21:09;98878.41;;;0.48
64394;BMP280;50712;49.506;10.400;2023-02-28T01:21:42;98886.44;;;0.48
64394;BMP280;50712;49.506;10.400;2023-02-28T01:22:12;98878.78;;;0.47
64394;BMP280;50712;49.506;10.400;2023-02-28T01:22:43;98885.25;;;0.46
64394;BMP280;50712;49.506;10.400;2023-02-28T01:23:13;98883.69;;;0.45
64394;BMP280;50712;49.506;10.400;2023-02-28T01:23:44;98881.78;;;0.45
64394;BMP280;50712;49.506;10.400;2023-02-28T01:24:14;98884.47;;;0.45
64394;BMP280;50712;49.506;10.400;2023-02-28T01:24:45;98886.38;;;0.45
64394;BMP280;50712;49.506;10.400;2023-02-28T01:25:16;98888.31;;;0.44
64394;BMP280;50712;49.506;10.400;2023-02-28T01:25:47;98877.13;;;0.42
64394;BMP280;50712;49.506;10.400;2023-02-28T01:26:18;98877.13;;;0.42
64394;BMP280;50712;49.506;10.400;2023-02-28T01:26:50;98876.34;;;0.42
64394;BMP280;50712;49.506;10.400;2023-02-28T01:27:20;98876.34;;;0.42
64394;BMP280;50712;49.506;10.400;2023-02-28T01:27:51;98877.50;;;0.41
64394;BMP280;50712;49.506;10.400;2023-02-28T01:28:23;98877.50;;;0.41
64394;BMP280;50712;49.506;10.400;2023-02-28T01:28:54;98886.31;;;0.41
64394;BMP280;50712;49.506;10.400;2023-02-28T01:29:24;98876.72;;;0.40
64394;BMP280;50712;49.506;10.400;2023-02-28T01:29:56;98880.19;;;0.41
64394;BMP280;50712;49.506;10.400;2023-02-28T01:30:27;98880.19;;;0.41
64394;BMP280;50712;49.506;10.400;2023-02-28T01:30:57;98875.16;;;0.39
64394;BMP280;50712;49.506;10.400;2023-02-28T01:31:27;98882.41;;;0.39
64394;BMP280;50712;49.506;10.400;2023-02-28T01:31:58;98876.25;;;0.38
64394;BMP280;50712;49.506;10.400;2023-02-28T01:32:29;98878.94;;;0.38
64394;BMP280;50712;49.506;10.400;2023-02-28T01:32:59;98888.91;;;0.38
64394;BMP280;50712;49.506;10.400;2023-02-28T01:33:30;98879.31;;;0.37
64394;BMP280;50712;49.506;10.400;2023-02-28T01:34:01;98879.31;;;0.37
64394;BMP280;50712;49.506;10.400;2023-02-28T01:34:32;98886.56;;;0.36
64394;BMP280;50712;49.506;10.400;2023-02-28T01:35:02;98880.44;;;0.36
64394;BMP280;50712;49.506;10.400;2023-02-28T01:35:34;98880.44;;;0.36
64394;BMP280;50712;49.506;10.400;2023-02-28T01:36:12;98876.22;;;0.35
64394;BMP280;50712;49.506;10.400;2023-02-28T01:36:50;98882.69;;;0.34
64394;BMP280;50712;49.506;10.400;2023-02-28T01:37:20;98876.56;;;0.33
64394;BMP280;50712;49.506;10.400;2023-02-28T01:37:50;98879.63;;;0.32
64394;BMP280;50712;49.506;10.400;2023-02-28T01:38:21;98875.78;;;0.33
64394;BMP280;50712;49.506;10.400;2023-02-28T01:38:51;98875.78;;;0.33
64394;BMP280;50712;49.506;10.400;2023-02-28T01:39:25;98874.97;;;0.32
64394;BMP280;50712;49.506;10.400;2023-02-28T01:39:55;98876.94;;;0.32
64394;BMP280;50712;49.506;10.400;2023-02-28T01:40:26;98878.84;;;0.31
64394;BMP280;50712;49.506;10.400;2023-02-28T01:40:56;98880.75;;;0.31
64394;BMP280;50712;49.506;10.400;2023-02-28T01:41:28;98875.72;;;0.29
64394;BMP280;50712;49.506;10.400;2023-02-28T01:42:01;98872.63;;;0.27
64394;BMP280;50712;49.506;10.400;2023-02-28T01:42:31;98877.97;;;0.27
64394;BMP280;50712;49.506;10.400;2023-02-28T01:43:01;98879.09;;;0.26
64394;BMP280;50712;49.506;10.400;2023-02-28T01:43:52;98881.00;;;0.26
64394;BMP280;50712;49.506;10.400;2023-02-28T01:45:29;98874.78;;;0.22
64394;BMP280;50712;49.506;10.400;2023-02-28T01:46:00;98874.00;;;0.21
64394;BMP280;50712;49.506;10.400;2023-02-28T01:46:31;98868.19;;;0.19
64394;BMP280;50712;49.506;10.400;2023-02-28T01:47:06;98866.66;;;0.18
64394;BMP280;50712;49.506;10.400;2023-02-28T01:47:38;98874.72;;;0.18
64394;BMP280;50712;49.506;10.400;2023-02-28T01:48:12;98875.81;;;0.17
64394;BMP280;50712;49.506;10.400;2023-02-28T01:49:05;98870.47;;;0.17
64394;BMP280;50712;49.506;10.400;2023-02-28T01:49:36;98869.25;;;0.15
64394;BMP280;50712;49.506;10.400;2023-02-28T01:50:08;98865.47;;;0.16
64394;BMP280;50712;49.506;10.400;2023-02-28T01:50:43;98872.72;;;0.15
64394;BMP280;50712;49.506;10.400;2023-02-28T01:52:04;98865.03;;;0.14
64394;BMP280;50712;49.506;10.400;2023-02-28T01:52:34;98865.03;;;0.14
64394;BMP280;50712;49.506;10.400;2023-02-28T01:53:06;98863.13;;;0.14
64394;BMP280;50712;49.506;10.400;2023-02-28T01:53:47;98870.38;;;0.14
64394;BMP280;50712;49.506;10.400;2023-02-28T01:54:27;98869.59;;;0.13
64394;BMP280;50712;49.506;10.400;2023-02-28T01:55:01;98862.69;;;0.12
64394;BMP280;50712;49.506;10.400;2023-02-28T01:55:34;98870.38;;;0.14
64394;BMP280;50712;49.506;10.400;2023-02-28T01:56:06;98868.84;;;0.13
64394;BMP280;50712;49.506;10.400;2023-02-28T01:56:37;98865.72;;;0.11
64394;BMP280;50712;49.506;10.400;2023-02-28T01:57:10;98859.25;;;0.12
64394;BMP280;50712;49.506;10.400;2023-02-28T01:57:45;98865.72;;;0.11
64394;BMP280;50712;49.506;10.400;2023-02-28T01:58:19;98863.81;;;0.11
64394;BMP280;50712;49.506;10.400;2023-02-28T01:58:51;98864.16;;;0.10
64394;BMP280;50712;49.506;10.400;2023-02-28T01:59:25;98870.66;;;0.09
64394;BMP280;50712;49.506;10.400;2023-02-28T02:00:00;98867.97;;;0.09
64394;BMP280;50712;49.506;10.400;2023-02-28T02:00:43;98868.31;;;0.07
64394;BMP280;50712;49.506;10.400;2023-02-28T02:01:14;98869.88;;;0.08
64394;BMP280;50712;49.506;10.400;2023-02-28T02:01:51;98862.94;;;0.07
64394;BMP280;50712;49.506;10.400;2023-02-28T02:02:23;98859.50;;;0.07
64394;BMP280;50712;49.506;10.400;2023-02-28T02:02:55;98864.09;;;0.06
64394;BMP280;50712;49.506;10.400;2023-02-28T02:03:28;98862.16;;;0.07
64394;BMP280;50712;49.506;10.400;2023-02-28T02:04:01;98872.13;;;0.06
64394;BMP280;50712;49.506;10.400;2023-02-28T02:04:37;98862.16;;;0.07
64394;BMP280;50712;49.506;10.400;2023-02-28T02:05:15;98859.50;;;0.07
64394;BMP280;50712;49.506;10.400;2023-02-28T02:05:54;98867.53;;;0.07
64394;BMP280;50712;49.506;10.400;2023-02-28T02:06:24;98859.84;;;0.05
64394;BMP280;50712;49.506;10.400;2023-02-28T02:06:57;98864.09;;;0.06
64394;BMP280;50712;49.506;10.400;2023-02-28T02:07:32;98857.94;;;0.06
64394;BMP280;50712;49.506;10.400;2023-02-28T02:08:09;98855.28;;;0.06
64394;BMP280;50712;49.506;10.400;2023-02-28T02:08:42;98857.16;;;0.05
64394;BMP280;50712;49.506;10.400;2023-02-28T02:09:13;98856.06;;;0.06
64394;BMP280;50712;49.506;10.400;2023-02-28T02:09:43;98862.16;;;0.07
64394;BMP280;50712;49.506;10.400;2023-02-28T02:10:17;98859.16;;;0.08
64394;BMP280;50712;49.506;10.400;2023-02-28T02:10:52;98855.69;;;0.08
64394;BMP280;50712;49.506;10.400;2023-02-28T02:11:26;98854.13;;;0.07
64394;BMP280;50712;49.506;10.400;2023-02-28T02:12:01;98855.69;;;0.08
64394;BMP280;50712;49.506;10.400;2023-02-28T02:14:16;98852.59;;;0.06
64394;BMP280;50712;49.506;10.400;2023-02-28T02:14:50;98855.28;;;0.06
64394;BMP280;50712;49.506;10.400;2023-02-28T02:15:40;98858.72;;;0.06
64394;BMP280;50712;49.506;10.400;2023-02-28T02:16:24;98855.28;;;0.06
64394;BMP280;50712;49.506;10.400;2023-02-28T02:17:05;98857.94;;;0.06
64394;BMP280;50712;49.506;10.400;2023-02-28T02:18:07;98857.94;;;0.06
64394;BMP280;50712;49.506;10.400;2023-02-28T02:18:52;98856.06;;;0.06
64394;BMP280;50712;49.506;10.400;2023-02-28T02:19:39;98857.16;;;0.05
64394;BMP280;50712;49.506;10.400;2023-02-28T02:20:22;98849.91;;;0.06
64394;BMP280;50712;49.506;10.400;2023-02-28T02:23:33;98847.56;;;0.04
64394;BMP280;50712;49.506;10.400;2023-02-28T02:26:11;98845.59;;;0.01
64394;BMP280;50712;49.506;10.400;2023-02-28T02:27:39;98843.28;;;-0.01
64394;BMP280;50712;49.506;10.400;2023-02-28T02:33:39;98838.94;;;-0.05
64394;BMP280;50712;49.506;10.400;2023-02-28T02:34:34;98836.63;;;-0.07
64394;BMP280;50712;49.506;10.400;2023-02-28T02:36:06;98839.31;;;-0.07
64394;BMP280;50712;49.506;10.400;2023-02-28T02:36:47;98836.63;;;-0.07
64394;BMP280;50712;49.506;10.400;2023-02-28T02:38:09;98843.44;;;-0.09
64394;BMP280;50712;49.506;10.400;2023-02-28T02:38:53;98842.75;;;-0.06
64394;BMP280;50712;49.506;10.400;2023-02-28T02:39:42;98837.75;;;-0.08
64394;BMP280;50712;49.506;10.400;2023-02-28T02:40:29;98830.03;;;-0.09
64394;BMP280;50712;49.506;10.400;2023-02-28T02:41:09;98839.63;;;-0.08
64394;BMP280;50712;49.506;10.400;2023-02-28T02:41:50;98836.97;;;-0.08
64394;BMP280;50712;49.506;10.400;2023-02-28T02:42:24;98832.72;;;-0.09
64394;BMP280;50712;49.506;10.400;2023-02-28T02:43:11;98840.75;;;-0.09
64394;BMP280;50712;49.506;10.400;2023-02-28T02:43:56;98839.22;;;-0.10
64394;BMP280;50712;49.506;10.400;2023-02-28T02:44:39;98837.31;;;-0.10
64394;BMP280;50712;49.506;10.400;2023-02-28T02:45:37;98834.97;;;-0.11
64394;BMP280;50712;49.506;10.400;2023-02-28T02:46:14;98837.31;;;-0.10
64394;BMP280;50712;49.506;10.400;2023-02-28T02:46:55;98836.53;;;-0.10
64394;BMP280;50712;49.506;10.400;2023-02-28T02:47:31;98840.00;;;-0.10
64394;BMP280;50712;49.506;10.400;2023-02-28T02:48:04;98838.84;;;-0.09
64394;BMP280;50712;49.506;10.400;2023-02-28T02:48:38;98844.22;;;-0.09
64394;BMP280;50712;49.506;10.400;2023-02-28T02:49:13;98833.50;;;-0.09
64394;BMP280;50712;49.506;10.400;2023-02-28T02:49:50;98830.81;;;-0.09
64394;BMP280;50712;49.506;10.400;2023-02-28T02:50:46;98844.22;;;-0.09
64394;BMP280;50712;49.506;10.400;2023-02-28T02:51:19;98836.19;;;-0.09
64394;BMP280;50712;49.506;10.400;2023-02-28T02:51:53;98839.63;;;-0.08
64394;BMP280;50712;49.506;10.400;2023-02-28T02:52:36;98843.09;;;-0.08
64394;BMP280;50712;49.506;10.400;2023-02-28T02:53:12;98845.00;;;-0.08
64394;BMP280;50712;49.506;10.400;2023-02-28T02:53:55;98840.41;;;-0.08
64394;BMP280;50712;49.506;10.400;2023-02-28T02:54:32;98831.59;;;-0.08
64394;BMP280;50712;49.506;10.400;2023-02-28T02:55:06;98838.06;;;-0.09
64394;BMP280;50712;49.506;10.400;2023-02-28T02:55:42;98837.75;;;-0.08
64394;BMP280;50712;49.506;10.400;2023-02-28T02:56:18;98836.63;;;-0.07
64394;BMP280;50712;49.506;10.400;2023-02-28T02:56:51;98836.63;;;-0.07
64394;BMP280;50712;49.506;10.400;2023-02-28T02:57:42;98844.66;;;-0.07
64394;BMP280;50712;49.506;10.400;2023-02-28T02:58:17;98839.72;;;-0.05
64394;BMP280;50712;49.506;10.400;2023-02-28T02:58:51;98840.84;;;-0.06
64394;BMP280;50712;49.506;10.400;2023-02-28T02:59:28;98843.97;;;-0.04
64394;BMP280;50712;49.506;10.400;2023-02-28T03:00:01;98837.06;;;-0.05
64394;BMP280;50712;49.506;10.400;2023-02-28T03:00:39;98840.50;;;-0.04
64394;BMP280;50712;49.506;10.400;2023-02-28T03:01:15;98840.16;;;-0.03
64394;BMP280;50712;49.506;10.400;2023-02-28T03:02:01;98848.97;;;-0.02
64394;BMP280;50712;49.506;10.400;2023-02-28T03:02:35;98837.91;;;-0.01
64394;BMP280;50712;49.506;10.400;2023-02-28T03:03:08;98837.56;;;0.01
64394;BMP280;50712;49.506;10.400;2023-02-28T03:03:40;98841.00;;;0.02
64394;BMP280;50712;49.506;10.400;2023-02-28T03:04:12;98841.00;;;0.02
64394;BMP280;50712;49.506;10.400;2023-02-28T03:04:48;98842.56;;;0.03
64394;BMP280;50712;49.506;10.400;2023-02-28T03:05:26;98842.22;;;0.04
64394;BMP280;50712;49.506;10.400;2023-02-28T03:06:02;98843.78;;;0.05
64394;BMP280;50712;49.506;10.400;2023-02-28T03:06:33;98841.88;;;0.06
64394;BMP280;50712;49.506;10.400;2023-02-28T03:07:05;98843.78;;;0.05
64394;BMP280;50712;49.506;10.400;2023-02-28T03:07:35;98844.56;;;0.06
64394;BMP280;50712;49.506;10.400;2023-02-28T03:08:06;98841.09;;;0.05
64394;BMP280;50712;49.506;10.400;2023-02-28T03:08:37;98841.09;;;0.05
64394;BMP280;50712;49.506;10.400;2023-02-28T03:09:08;98843.78;;;0.05
64394;BMP280;50712;49.506;10.400;2023-02-28T03:09:38;98848.34;;;0.05
64394;BMP280;50712;49.506;10.400;2023-02-28T03:10:27;98846.47;;;0.05
64394;BMP280;50712;49.506;10.400;2023-02-28T03:11:01;98839.19;;;0.06
64394;BMP280;50712;49.506;10.400;2023-02-28T03:11:34;98844.56;;;0.06
64394;BMP280;50712;49.506;10.400;2023-02-28T03:12:08;98844.56;;;0.06
64394;BMP280;50712;49.506;10.400;2023-02-28T03:12:45;98847.66;;;0.08
64394;BMP280;50712;49.506;10.400;2023-02-28T03:13:44;98846.09;;;0.07
64394;BMP280;50712;49.506;10.400;2023-02-28T03:18:44;98849.13;;;0.05
64394;BMP280;50712;49.506;10.400;2023-02-28T03:19:37;98847.56;;;0.04
64394;BMP280;50712;49.506;10.400;2023-02-28T03:20:43;98847.56;;;0.04
64394;BMP280;50712;49.506;10.400;2023-02-28T03:23:03;98847.84;;;-0.01
64394;BMP280;50712;49.506;10.400;2023-02-28T03:24:11;98852.00;;;-0.04
64394;BMP280;50712;49.506;10.400;2023-02-28T03:25:59;98854.69;;;-0.04
64394;BMP280;50712;49.506;10.400;2023-02-28T03:26:34;98852.34;;;-0.05
64394;BMP280;50712;49.506;10.400;2023-02-28T03:27:10;98849.66;;;-0.05
64394;BMP280;50712;49.506;10.400;2023-02-28T03:29:20;98851.22;;;-0.04
64394;BMP280;50712;49.506;10.400;2023-02-28T03:30:38;98851.56;;;-0.06
64394;BMP280;50712;49.506;10.400;2023-02-28T03:31:17;98855.38;;;-0.07
64394;BMP280;50712;49.506;10.400;2023-02-28T03:31:59;98848.09;;;-0.06
64394;BMP280;50712;49.506;10.400;2023-02-28T03:32:40;98851.91;;;-0.07
64394;BMP280;50712;49.506;10.400;2023-02-28T03:33:17;98851.91;;;-0.07
64394;BMP280;50712;49.506;10.400;2023-02-28T03:34:07;98849.25;;;-0.07
64394;BMP280;50712;49.506;10.400;2023-02-28T03:34:46;98844.22;;;-0.09
64394;BMP280;50712;49.506;10.400;2023-02-28T03:35:31;98848.03;;;-0.10
64394;BMP280;50712;49.506;10.400;2023-02-28T03:36:07;98846.09;;;-0.09
64394;BMP280;50712;49.506;10.400;2023-02-28T03:36:44;98845.34;;;-0.10
64394;BMP280;50712;49.506;10.400;2023-02-28T03:37:19;98846.47;;;-0.11
64394;BMP280;50712;49.506;10.400;2023-02-28T03:37:55;98849.47;;;-0.12
64394;BMP280;50712;49.506;10.400;2023-02-28T03:38:35;98849.47;;;-0.12
64394;BMP280;50712;49.506;10.400;2023-02-28T03:39:14;98841.81;;;-0.14
64394;BMP280;50712;49.506;10.400;2023-02-28T03:39:49;98847.94;;;-0.13
64394;BMP280;50712;49.506;10.400;2023-02-28T03:40:27;98844.50;;;-0.14
64394;BMP280;50712;49.506;10.400;2023-02-28T03:41:06;98849.06;;;-0.14